Terminal Aerodrome Forecast
Issued by NWS

Home | Current Version | Previous Version | Text Only | Print | Product List | Glossary On
Versions: 1 2 3 4 5 6 7 8 9 10 11 12 13 14 15 16 17 18 19 20 21 22 23 24 25 26
556
FTUS41 KGYX 250529
TAFAUG
TAF
KAUG 250529Z 2506/2606 VRB03KT 1/4SM FG VV002 WS020/24040KT
     FM251400 16004KT 1SM BR BKN003
     FM251600 17006KT P6SM -SHRA BKN007
     FM260500 24010KT 5SM SHRA BR OVC015=

USA.gov is the U.S. government's official web portal to all federal, state and local government web resources and services.